createdAt,value
2022-08-11T00:01:18.165Z,22.07
2022-08-11T00:03:54.043Z,22.09
2022-08-11T00:06:28.980Z,22.03
2022-08-11T00:08:58.787Z,22.01
2022-08-11T00:11:36.182Z,21.99
2022-08-11T00:14:14.566Z,21.94
2022-08-11T00:16:54.145Z,21.91
2022-08-11T00:20:12.863Z,21.88
2022-08-11T00:22:22.424Z,21.85
2022-08-11T00:24:53.978Z,21.84
2022-08-11T00:27:33.373Z,21.78
2022-08-11T00:30:02.099Z,21.73
2022-08-11T00:32:33.239Z,21.71
2022-08-11T00:35:53.887Z,21.70
2022-08-11T00:37:56.044Z,21.70
2022-08-11T00:40:37.406Z,21.66
2022-08-11T00:43:24.714Z,21.63
2022-08-11T00:46:15.139Z,21.60
2022-08-11T00:49:16.864Z,21.54
2022-08-11T00:52:08.533Z,21.55
2022-08-11T00:55:23.757Z,21.51
2022-08-11T00:58:45.065Z,21.46
2022-08-11T01:01:34.420Z,21.42
2022-08-11T01:04:55.867Z,21.43
2022-08-11T01:08:25.378Z,21.40
2022-08-11T01:11:23.265Z,21.34
2022-08-11T01:14:50.065Z,21.32
2022-08-11T01:18:21.846Z,21.30
2022-08-11T01:21:55.195Z,21.28
2022-08-11T01:25:21.794Z,21.28
2022-08-11T01:28:38.810Z,21.22
2022-08-11T01:32:02.049Z,21.21
2022-08-11T01:35:21.940Z,21.21
2022-08-11T01:38:34.919Z,21.15
2022-08-11T01:41:51.891Z,21.15
2022-08-11T01:45:07.388Z,21.14
2022-08-11T01:47:54.323Z,21.13
2022-08-11T01:51:03.349Z,21.15
2022-08-11T01:53:59.449Z,21.14
2022-08-11T01:56:38.303Z,21.11
2022-08-11T01:59:17.530Z,21.09
2022-08-11T02:02:41.975Z,21.00
2022-08-11T02:05:26.768Z,20.96
2022-08-11T02:08:21.449Z,20.91
2022-08-11T02:11:31.107Z,20.90
2022-08-11T02:14:22.296Z,20.89
2022-08-11T02:17:09.771Z,20.88
2022-08-11T02:20:12.895Z,20.88
2022-08-11T02:23:14.047Z,20.83
2022-08-11T02:26:14.570Z,20.85
2022-08-11T02:28:59.936Z,20.84
2022-08-11T02:32:24.539Z,20.83
2022-08-11T02:35:05.088Z,20.72
2022-08-11T02:37:51.805Z,20.68
2022-08-11T02:40:34.718Z,20.69
2022-08-11T02:43:13.308Z,20.68
2022-08-11T02:45:59.965Z,20.64
2022-08-11T02:49:11.398Z,20.55
2022-08-11T02:52:00.556Z,20.44
2022-08-11T02:54:44.870Z,20.39
2022-08-11T02:57:21.227Z,20.38
2022-08-11T02:59:58.274Z,20.34
2022-08-11T03:03:00.122Z,20.27
2022-08-11T03:05:45.380Z,20.22
2022-08-11T03:08:33.827Z,20.11
2022-08-11T03:11:31.267Z,20.03
2022-08-11T03:14:35.471Z,19.92
2022-08-11T03:17:23.997Z,19.81
2022-08-11T03:20:08.838Z,19.73
2022-08-11T03:22:52.183Z,19.66
2022-08-11T03:25:32.409Z,19.57
2022-08-11T03:28:14.407Z,19.50
2022-08-11T03:30:53.526Z,19.45
2022-08-11T03:33:47.809Z,19.42
2022-08-11T03:37:16.527Z,19.40
2022-08-11T03:40:04.361Z,19.30
2022-08-11T03:42:56.075Z,19.25
2022-08-11T03:45:41.667Z,19.22
2022-08-11T03:48:19.909Z,19.20
2022-08-11T03:51:06.285Z,19.20
2022-08-11T03:54:04.919Z,19.19
2022-08-11T03:57:25.509Z,19.18
2022-08-11T04:00:39.124Z,19.17
2022-08-11T04:03:51.690Z,19.12
2022-08-11T04:07:10.949Z,19.13
2022-08-11T04:10:28.709Z,19.05
2022-08-11T04:13:58.136Z,19.09
2022-08-11T04:16:53.182Z,19.14
2022-08-11T04:20:11.897Z,19.14
2022-08-11T04:24:13.099Z,19.13
2022-08-11T04:26:47.516Z,19.08
2022-08-11T04:30:03.450Z,19.01
2022-08-11T04:33:25.766Z,18.90
2022-08-11T04:36:10.127Z,18.84
2022-08-11T04:39:08.617Z,18.83
2022-08-11T04:42:44.260Z,18.85
2022-08-11T04:45:46.246Z,18.83
2022-08-11T04:49:09.841Z,18.79
2022-08-11T04:52:37.585Z,18.75
2022-08-11T04:56:13.967Z,18.75
2022-08-11T04:59:27.329Z,18.85
2022-08-11T05:02:38.179Z,18.97
2022-08-11T05:05:31.107Z,19.09
2022-08-11T05:09:00.764Z,19.27
2022-08-11T05:11:57.987Z,19.49
2022-08-11T05:14:56.317Z,19.76
2022-08-11T05:17:55.465Z,20.08
2022-08-11T05:20:45.589Z,20.33
2022-08-11T05:23:35.384Z,20.71
2022-08-11T05:26:47.915Z,21.05
2022-08-11T05:29:59.220Z,21.45
2022-08-11T05:33:00.886Z,21.86
2022-08-11T05:36:00.380Z,22.24
2022-08-11T05:38:53.489Z,22.56
2022-08-11T05:41:44.772Z,22.82
2022-08-11T05:44:39.217Z,23.06
2022-08-11T05:47:28.445Z,23.21
2022-08-11T05:50:16.889Z,23.47
2022-08-11T05:53:19.866Z,23.65
2022-08-11T05:56:09.365Z,23.93
2022-08-11T05:58:42.939Z,24.07
2022-08-11T06:01:14.165Z,24.11
2022-08-11T06:04:08.600Z,24.28
2022-08-11T06:06:45.153Z,24.40
2022-08-11T06:09:14.734Z,24.58
2022-08-11T06:11:45.123Z,24.72
2022-08-11T06:14:15.523Z,24.82
2022-08-11T06:16:49.600Z,24.82
2022-08-11T06:19:30.912Z,24.82
2022-08-11T06:22:01.521Z,24.98
2022-08-11T06:24:32.280Z,25.13
2022-08-11T06:27:18.619Z,25.36
2022-08-11T06:29:54.894Z,25.45
2022-08-11T06:32:28.684Z,25.83
2022-08-11T06:35:14.016Z,26.02
2022-08-11T06:37:59.041Z,26.09
2022-08-11T06:40:37.086Z,26.19
2022-08-11T06:43:18.541Z,26.46
2022-08-11T06:45:57.763Z,26.53
2022-08-11T06:48:26.369Z,26.43
2022-08-11T06:51:12.315Z,26.77
2022-08-11T06:53:56.332Z,26.87
2022-08-11T06:57:12.521Z,27.00
2022-08-11T07:00:03.584Z,27.26
2022-08-11T07:02:37.080Z,27.30
2022-08-11T07:05:20.247Z,27.36
2022-08-11T07:09:11.843Z,27.64
2022-08-11T07:12:19.816Z,28.07
2022-08-11T07:15:11.532Z,28.63
2022-08-11T07:17:49.286Z,28.69
2022-08-11T07:20:37.184Z,28.93
2022-08-11T07:23:28.903Z,29.08
2022-08-11T07:26:21.014Z,29.23
2022-08-11T07:28:57.970Z,29.82
2022-08-11T07:31:34.090Z,29.89
2022-08-11T07:34:21.554Z,29.77
2022-08-11T07:36:55.573Z,30.12
2022-08-11T07:39:27.878Z,30.58
2022-08-11T07:42:00.351Z,30.68
2022-08-11T07:44:34.789Z,30.75
2022-08-11T07:47:22.999Z,31.28
2022-08-11T07:50:12.682Z,31.22
2022-08-11T07:52:42.580Z,31.24
2022-08-11T07:55:17.116Z,31.66
2022-08-11T07:58:16.476Z,31.86
2022-08-11T08:01:21.613Z,31.84
2022-08-11T08:04:11.591Z,31.86
2022-08-11T08:06:59.572Z,31.85
2022-08-11T08:09:47.432Z,31.94
2022-08-11T08:12:35.486Z,32.01
2022-08-11T08:15:28.783Z,32.03
2022-08-11T08:18:20.556Z,32.14
2022-08-11T08:20:51.615Z,32.42
2022-08-11T08:23:33.050Z,32.54
2022-08-11T08:26:05.921Z,32.96
2022-08-11T08:28:46.516Z,32.90
2022-08-11T08:31:16.368Z,32.67
2022-08-11T08:33:45.313Z,32.96
2022-08-11T08:36:16.921Z,33.27
2022-08-11T08:38:49.894Z,33.48
2022-08-11T08:41:23.135Z,33.69
2022-08-11T08:43:56.424Z,33.66
2022-08-11T08:46:34.825Z,33.64
2022-08-11T08:49:05.613Z,33.78
2022-08-11T08:51:58.730Z,33.83
2022-08-11T08:54:37.027Z,33.81
2022-08-11T08:57:09.067Z,33.80
2022-08-11T08:59:47.645Z,34.12
2022-08-11T09:02:34.680Z,34.64
2022-08-11T09:05:18.091Z,35.15
2022-08-11T09:07:54.038Z,35.44
2022-08-11T09:10:25.166Z,35.16
2022-08-11T09:12:53.504Z,34.87
2022-08-11T09:15:24.201Z,34.70
2022-08-11T09:18:10.032Z,34.69
2022-08-11T09:20:39.524Z,35.00
2022-08-11T09:24:07.427Z,35.60
2022-08-11T09:26:37.584Z,35.68
2022-08-11T09:29:08.456Z,35.43
2022-08-11T09:31:40.261Z,35.31
2022-08-11T09:34:11.549Z,35.33
2022-08-11T09:37:06.173Z,35.24
2022-08-11T09:39:56.197Z,35.36
2022-08-11T09:42:48.559Z,35.32
2022-08-11T09:45:18.501Z,35.89
2022-08-11T09:47:48.219Z,35.75
2022-08-11T09:50:18.465Z,36.31
2022-08-11T09:53:16.955Z,36.51
2022-08-11T09:55:39.929Z,36.66
2022-08-11T09:58:42.288Z,37.21
2022-08-11T10:01:03.853Z,37.74
2022-08-11T10:03:40.324Z,37.61
2022-08-11T10:06:34.276Z,37.62
2022-08-11T10:09:06.943Z,37.69
2022-08-11T10:11:38.752Z,37.56
2022-08-11T10:14:34.017Z,36.70
2022-08-11T10:17:09.088Z,36.72
2022-08-11T10:19:40.433Z,37.42
2022-08-11T10:22:32.987Z,37.42
2022-08-11T10:25:21.535Z,37.25
2022-08-11T10:28:30.521Z,37.06
2022-08-11T10:31:06.935Z,36.73
2022-08-11T10:34:03.502Z,37.27
2022-08-11T10:36:34.680Z,37.78
2022-08-11T10:39:06.624Z,38.01
2022-08-11T10:42:06.079Z,38.21
2022-08-11T10:44:42.119Z,37.11
2022-08-11T10:47:34.330Z,37.70
2022-08-11T10:50:26.145Z,37.78
2022-08-11T10:53:16.190Z,38.59
2022-08-11T10:56:17.598Z,38.43
2022-08-11T10:58:52.564Z,38.35
2022-08-11T11:01:25.299Z,38.32
2022-08-11T11:03:58.944Z,39.10
2022-08-11T11:06:44.822Z,39.24
2022-08-11T11:09:18.530Z,39.37
2022-08-11T11:12:13.053Z,39.23
2022-08-11T11:15:01.569Z,38.97
2022-08-11T11:17:56.743Z,37.69
2022-08-11T11:20:36.749Z,37.45
2022-08-11T11:23:18.483Z,37.46
2022-08-11T11:26:32.011Z,37.76
2022-08-11T11:29:46.207Z,38.35
2022-08-11T11:32:28.247Z,38.51
2022-08-11T11:35:31.250Z,38.43
2022-08-11T11:38:04.831Z,38.10
2022-08-11T11:40:34.819Z,37.87
2022-08-11T11:43:05.244Z,37.81
2022-08-11T11:45:35.241Z,37.86
2022-08-11T11:48:04.186Z,38.09
2022-08-11T11:50:38.660Z,37.76
2022-08-11T11:53:10.606Z,37.79
2022-08-11T11:55:43.533Z,37.82
2022-08-11T11:58:32.136Z,38.52
2022-08-11T12:01:19.779Z,38.90
2022-08-11T12:03:52.727Z,39.24
2022-08-11T12:06:28.241Z,39.64
2022-08-11T12:08:58.690Z,40.02
2022-08-11T12:11:50.333Z,39.98
2022-08-11T12:14:21.094Z,39.74
2022-08-11T12:16:51.326Z,39.14
2022-08-11T12:19:35.917Z,38.93
2022-08-11T12:22:23.220Z,39.64
2022-08-11T12:25:11.581Z,39.34
2022-08-11T12:27:41.803Z,39.47
2022-08-11T12:30:12.938Z,39.59
2022-08-11T12:32:44.295Z,39.99
2022-08-11T12:35:15.989Z,39.51
2022-08-11T12:37:49.247Z,39.65
2022-08-11T12:41:12.038Z,39.88
2022-08-11T12:43:57.007Z,39.59
2022-08-11T12:46:34.455Z,39.97
2022-08-11T12:49:31.310Z,40.14
2022-08-11T12:52:14.760Z,41.01
2022-08-11T12:54:56.301Z,41.01
2022-08-11T12:57:49.135Z,41.12
2022-08-11T13:00:39.549Z,41.32
2022-08-11T13:03:29.612Z,41.46
2022-08-11T13:06:03.839Z,41.22
2022-08-11T13:08:38.417Z,40.72
2022-08-11T13:11:56.980Z,41.09
2022-08-11T13:14:17.030Z,40.99
2022-08-11T13:17:05.518Z,41.41
2022-08-11T13:19:34.851Z,41.02
2022-08-11T13:22:07.300Z,40.89
2022-08-11T13:24:36.578Z,40.45
2022-08-11T13:27:05.628Z,39.96
2022-08-11T13:29:36.711Z,40.01
2022-08-11T13:32:06.553Z,40.29
2022-08-11T13:34:41.560Z,39.55
2022-08-11T13:37:14.600Z,39.53
2022-08-11T13:39:48.683Z,39.81
2022-08-11T13:42:20.898Z,39.52
2022-08-11T13:44:49.628Z,39.60
2022-08-11T13:47:18.882Z,39.60
2022-08-11T13:49:47.888Z,40.25
2022-08-11T13:52:19.424Z,40.77
2022-08-11T13:54:51.135Z,40.64
2022-08-11T13:58:08.205Z,40.26
2022-08-11T14:00:13.210Z,40.39
2022-08-11T14:02:57.209Z,40.47
2022-08-11T14:05:29.741Z,40.29
2022-08-11T14:08:38.205Z,40.79
2022-08-11T14:12:21.751Z,40.48
2022-08-11T14:14:21.276Z,40.15
2022-08-11T14:16:57.937Z,39.60
2022-08-11T14:19:29.936Z,39.96
2022-08-11T14:22:09.129Z,40.28
2022-08-11T14:24:43.460Z,40.02
2022-08-11T14:28:30.552Z,39.42
2022-08-11T14:30:05.372Z,39.07
2022-08-11T14:32:33.842Z,39.02
2022-08-11T14:35:05.371Z,39.30
2022-08-11T14:37:33.636Z,39.72
2022-08-11T14:40:24.312Z,39.94
2022-08-11T14:43:21.860Z,40.01
2022-08-11T14:46:29.003Z,40.02
2022-08-11T14:49:01.786Z,39.92
2022-08-11T14:51:30.739Z,40.14
2022-08-11T14:54:20.222Z,40.03
2022-08-11T14:56:54.721Z,40.02
2022-08-11T14:59:26.688Z,39.79
2022-08-11T15:02:13.658Z,39.57
2022-08-11T15:04:46.460Z,39.22
2022-08-11T15:07:17.378Z,39.39
2022-08-11T15:10:10.146Z,39.39
2022-08-11T15:12:41.853Z,39.45
2022-08-11T15:15:31.585Z,39.20
2022-08-11T15:18:06.890Z,39.35
2022-08-11T15:20:53.963Z,39.39
2022-08-11T15:23:40.886Z,39.50
2022-08-11T15:26:15.507Z,39.15
2022-08-11T15:29:10.322Z,39.04
2022-08-11T15:31:44.246Z,38.54
2022-08-11T15:34:40.831Z,38.62
2022-08-11T15:37:26.830Z,38.85
2022-08-11T15:40:32.899Z,39.14
2022-08-11T15:43:29.320Z,39.48
2022-08-11T15:46:08.247Z,39.32
2022-08-11T15:48:48.138Z,38.94
2022-08-11T15:51:27.346Z,38.52
2022-08-11T15:54:07.117Z,38.51
2022-08-11T15:56:44.065Z,38.09
2022-08-11T15:59:41.897Z,38.01
2022-08-11T16:02:35.877Z,38.05
2022-08-11T16:05:13.303Z,38.14
2022-08-11T16:07:49.049Z,37.91
2022-08-11T16:10:23.237Z,38.08
2022-08-11T16:13:05.717Z,37.74
2022-08-11T16:15:57.066Z,37.55
2022-08-11T16:18:40.603Z,37.63
2022-08-11T16:21:33.993Z,37.46
2022-08-11T16:24:05.954Z,37.54
2022-08-11T16:27:08.488Z,37.45
2022-08-11T16:29:32.184Z,37.50
2022-08-11T16:32:18.471Z,36.96
2022-08-11T16:35:15.843Z,36.71
2022-08-11T16:38:04.752Z,36.74
2022-08-11T16:40:34.933Z,36.42
2022-08-11T16:43:28.573Z,36.38
2022-08-11T16:46:16.830Z,36.40
2022-08-11T16:48:49.388Z,36.64
2022-08-11T16:51:20.908Z,36.61
2022-08-11T16:54:05.536Z,36.27
2022-08-11T16:56:41.827Z,35.99
2022-08-11T16:59:17.883Z,35.83
2022-08-11T17:01:55.542Z,35.58
2022-08-11T17:04:54.268Z,35.49
2022-08-11T17:07:44.842Z,35.57
2022-08-11T17:10:53.242Z,35.43
2022-08-11T17:13:32.813Z,35.44
2022-08-11T17:16:12.411Z,35.36
2022-08-11T17:18:57.075Z,35.15
2022-08-11T17:21:29.843Z,35.18
2022-08-11T17:24:08.431Z,34.81
2022-08-11T17:26:55.822Z,34.83
2022-08-11T17:29:32.645Z,34.75
2022-08-11T17:32:25.549Z,34.48
2022-08-11T17:35:19.762Z,33.86
2022-08-11T17:37:50.325Z,33.79
2022-08-11T17:40:24.518Z,33.72
2022-08-11T17:43:15.018Z,33.62
2022-08-11T17:46:05.165Z,33.16
2022-08-11T17:48:47.881Z,32.90
2022-08-11T17:51:39.969Z,32.63
2022-08-11T17:54:29.535Z,32.57
2022-08-11T17:57:20.325Z,32.49
2022-08-11T17:59:54.639Z,32.36
2022-08-11T18:02:49.196Z,32.20
2022-08-11T18:05:21.582Z,32.10
2022-08-11T18:08:12.620Z,31.92
2022-08-11T18:11:02.510Z,31.72
2022-08-11T18:13:59.602Z,31.67
2022-08-11T18:16:48.009Z,31.57
2022-08-11T18:19:35.110Z,31.53
2022-08-11T18:22:26.678Z,31.41
2022-08-11T18:25:20.025Z,31.29
2022-08-11T18:28:12.620Z,31.12
2022-08-11T18:31:07.529Z,31.00
2022-08-11T18:34:08.984Z,30.81
2022-08-11T18:37:05.006Z,30.72
2022-08-11T18:40:02.459Z,30.55
2022-08-11T18:42:52.338Z,30.45
2022-08-11T18:45:45.710Z,30.38
2022-08-11T18:48:41.674Z,30.29
2022-08-11T18:51:36.902Z,30.18
2022-08-11T18:54:29.293Z,30.15
2022-08-11T18:57:21.989Z,30.08
2022-08-11T19:00:12.343Z,29.98
2022-08-11T19:03:01.760Z,29.84
2022-08-11T19:06:37.161Z,29.68
2022-08-11T19:09:12.791Z,29.55
2022-08-11T19:12:00.623Z,29.44
2022-08-11T19:14:53.618Z,29.28
2022-08-11T19:17:45.941Z,29.12
2022-08-11T19:20:39.038Z,28.98
2022-08-11T19:23:31.656Z,28.80
2022-08-11T19:26:21.899Z,28.64
2022-08-11T19:30:05.280Z,28.47
2022-08-11T19:32:18.617Z,28.28
2022-08-11T19:35:07.678Z,28.13
2022-08-11T19:37:56.765Z,28.01
2022-08-11T19:40:46.666Z,27.84
2022-08-11T19:43:36.721Z,27.73
2022-08-11T19:46:27.063Z,27.64
2022-08-11T19:49:20.881Z,27.59
2022-08-11T19:52:09.431Z,27.54
2022-08-11T19:54:59.577Z,27.47
2022-08-11T19:57:49.707Z,27.36
2022-08-11T20:00:39.177Z,27.24
2022-08-11T20:03:30.673Z,27.14
2022-08-11T20:06:22.164Z,27.02
2022-08-11T20:09:12.540Z,26.92
2022-08-11T20:12:06.048Z,26.82
2022-08-11T20:14:59.065Z,26.71
2022-08-11T20:17:52.000Z,26.65
2022-08-11T20:20:43.399Z,26.60
2022-08-11T20:23:34.820Z,26.52
2022-08-11T20:26:31.540Z,26.46
2022-08-11T20:29:19.889Z,26.39
2022-08-11T20:32:09.624Z,26.34
2022-08-11T20:34:58.865Z,26.27
2022-08-11T20:37:51.306Z,26.21
2022-08-11T20:40:43.924Z,26.15
2022-08-11T20:44:08.562Z,26.08
2022-08-11T20:46:44.265Z,26.03
2022-08-11T20:49:41.272Z,25.99
2022-08-11T20:52:41.793Z,25.96
2022-08-11T20:55:52.212Z,25.95
2022-08-11T20:59:13.229Z,25.91
2022-08-11T21:01:52.053Z,25.88
2022-08-11T21:04:54.316Z,25.85
2022-08-11T21:07:55.159Z,25.81
2022-08-11T21:10:46.723Z,25.81
2022-08-11T21:13:36.947Z,25.84
2022-08-11T21:16:27.735Z,25.84
2022-08-11T21:20:01.737Z,25.84
2022-08-11T21:22:38.913Z,25.83
2022-08-11T21:25:32.242Z,25.78
2022-08-11T21:28:24.723Z,25.74
2022-08-11T21:31:14.632Z,25.70
2022-08-11T21:34:03.743Z,25.69
2022-08-11T21:36:52.697Z,25.63
2022-08-11T21:39:44.804Z,25.61
2022-08-11T21:42:33.375Z,25.55
2022-08-11T21:45:21.609Z,25.50
2022-08-11T21:48:09.572Z,25.48
2022-08-11T21:50:56.306Z,25.45
2022-08-11T21:53:44.755Z,25.38
2022-08-11T21:56:34.327Z,25.33
2022-08-11T21:59:21.058Z,25.27
2022-08-11T22:02:12.545Z,25.21
2022-08-11T22:05:00.949Z,25.16
2022-08-11T22:07:48.725Z,25.12
2022-08-11T22:10:42.160Z,25.09
2022-08-11T22:13:32.026Z,25.02
2022-08-11T22:16:18.790Z,24.95
2022-08-11T22:19:09.584Z,24.94
2022-08-11T22:22:02.661Z,24.88
2022-08-11T22:24:52.995Z,24.80
2022-08-11T22:27:40.804Z,24.80
2022-08-11T22:30:30.667Z,24.77
2022-08-11T22:33:25.727Z,24.68
2022-08-11T22:36:17.040Z,24.69
2022-08-11T22:39:07.413Z,24.68
2022-08-11T22:41:54.944Z,24.61
2022-08-11T22:44:41.592Z,24.56
2022-08-11T22:47:38.305Z,24.55
2022-08-11T22:50:30.703Z,24.54
2022-08-11T22:53:19.791Z,24.54
2022-08-11T22:56:08.346Z,24.50
2022-08-11T22:58:55.090Z,24.47
2022-08-11T23:01:56.301Z,24.44
2022-08-11T23:04:53.129Z,24.40
2022-08-11T23:07:51.534Z,24.35
2022-08-11T23:10:39.270Z,24.30
2022-08-11T23:13:27.803Z,24.24
2022-08-11T23:16:16.429Z,24.22
2022-08-11T23:19:04.448Z,24.18
2022-08-11T23:21:53.255Z,24.19
2022-08-11T23:24:41.078Z,24.18
2022-08-11T23:27:29.133Z,24.15
2022-08-11T23:30:19.199Z,24.11
2022-08-11T23:33:10.116Z,24.10
2022-08-11T23:36:03.600Z,24.03
2022-08-11T23:38:54.185Z,23.96
2022-08-11T23:41:41.867Z,23.93
2022-08-11T23:44:28.328Z,23.85
2022-08-11T23:47:18.514Z,23.85
2022-08-11T23:50:06.519Z,23.83
2022-08-11T23:52:54.574Z,23.80
2022-08-11T23:55:42.307Z,23.77
2022-08-11T23:58:30.707Z,23.71
